createdAt,value
2017-01-21T00:00:17.979Z,967.46
2017-01-21T00:01:17.960Z,967.44
2017-01-21T00:02:17.939Z,967.4
2017-01-21T00:03:17.919Z,967.41
2017-01-21T00:04:17.897Z,967.39
2017-01-21T00:05:17.879Z,967.33
2017-01-21T00:06:17.857Z,967.41
2017-01-21T00:07:17.837Z,967.34
2017-01-21T00:08:17.816Z,967.34
2017-01-21T00:09:17.796Z,967.34
2017-01-21T00:10:17.776Z,967.34
2017-01-21T00:11:17.754Z,967.36
2017-01-21T00:12:17.734Z,967.34
2017-01-21T00:13:17.715Z,967.36
2017-01-21T00:14:17.694Z,967.35
2017-01-21T00:15:17.673Z,967.35
2017-01-21T00:16:17.653Z,967.38
2017-01-21T00:17:17.633Z,967.36
2017-01-21T00:18:17.613Z,967.37
2017-01-21T00:19:17.592Z,967.36
2017-01-21T00:20:17.570Z,967.37
2017-01-21T00:21:17.551Z,967.37
2017-01-21T00:22:17.531Z,967.34
2017-01-21T00:23:17.511Z,967.37
2017-01-21T00:24:17.490Z,967.38
2017-01-21T00:25:17.469Z,967.35
2017-01-21T00:26:17.449Z,967.35
2017-01-21T00:27:17.429Z,967.3
2017-01-21T00:28:17.409Z,967.3
2017-01-21T00:29:17.386Z,967.26
2017-01-21T00:30:17.366Z,967.31
2017-01-21T00:31:17.347Z,967.28
2017-01-21T00:32:17.328Z,967.29
2017-01-21T00:33:17.306Z,967.26
2017-01-21T00:34:17.285Z,967.27
2017-01-21T00:35:17.265Z,967.24
2017-01-21T00:36:17.246Z,967.2
2017-01-21T00:37:17.223Z,967.21
2017-01-21T00:38:17.205Z,967.2
2017-01-21T00:39:17.184Z,967.17
2017-01-21T00:40:17.162Z,967.19
2017-01-21T00:41:17.141Z,967.19
2017-01-21T00:42:17.121Z,967.16
2017-01-21T00:43:17.102Z,967.18
2017-01-21T00:44:17.080Z,967.14
2017-01-21T00:45:17.060Z,967.16
2017-01-21T00:46:17.039Z,967.12
2017-01-21T00:47:17.019Z,967.08
2017-01-21T00:48:16.998Z,967.13
2017-01-21T00:49:16.978Z,967.15
2017-01-21T00:50:16.957Z,967.14
2017-01-21T00:51:16.937Z,967.09
2017-01-21T00:52:16.916Z,967.1
2017-01-21T00:53:16.894Z,967.12
2017-01-21T00:54:16.875Z,967.14
2017-01-21T00:55:16.853Z,967.15
2017-01-21T00:56:16.833Z,967.14
2017-01-21T00:57:16.812Z,967.15
2017-01-21T00:58:16.793Z,967.18
2017-01-21T00:59:16.771Z,967.15
2017-01-21T01:00:16.751Z,967.14
2017-01-21T01:01:16.730Z,967.1
2017-01-21T01:02:16.709Z,967.1
2017-01-21T01:03:16.688Z,967.09
2017-01-21T01:04:16.668Z,967.11
2017-01-21T01:05:16.648Z,967.11
2017-01-21T01:06:16.628Z,967.1
2017-01-21T01:07:16.607Z,967.11
2017-01-21T01:08:16.587Z,967.09
2017-01-21T01:09:16.566Z,967.09
2017-01-21T01:10:16.546Z,967.06
2017-01-21T01:11:16.525Z,967.04
2017-01-21T01:12:16.663Z,967.05
2017-01-21T01:13:16.483Z,967.02
2017-01-21T01:14:16.462Z,967.06
2017-01-21T01:15:16.471Z,967.04
2017-01-21T01:16:16.421Z,967.03
2017-01-21T01:17:16.401Z,967.02
2017-01-21T01:18:16.456Z,967.03
2017-01-21T01:19:16.361Z,967.07
2017-01-21T01:20:16.341Z,967.05
2017-01-21T01:21:16.319Z,967.08
2017-01-21T01:22:16.299Z,967.16
2017-01-21T01:23:16.309Z,967.09
2017-01-21T01:24:16.257Z,967.1
2017-01-21T01:25:16.237Z,967.15
2017-01-21T01:26:16.239Z,967.11
2017-01-21T01:27:16.197Z,967.12
2017-01-21T01:28:16.176Z,967.18
2017-01-21T01:29:16.281Z,967.19
2017-01-21T01:30:16.135Z,967.16
2017-01-21T01:31:16.114Z,967.15
2017-01-21T01:32:16.094Z,967.17
2017-01-21T01:33:16.075Z,967.17
2017-01-21T01:34:16.055Z,967.15
2017-01-21T01:35:16.131Z,967.2
2017-01-21T01:36:16.014Z,967.15
2017-01-21T01:37:15.993Z,967.15
2017-01-21T01:38:15.973Z,967.16
2017-01-21T01:39:16.245Z,967.14
2017-01-21T01:40:15.932Z,967.19
2017-01-21T01:41:15.912Z,967.15
2017-01-21T01:42:15.891Z,967.17
2017-01-21T01:43:15.871Z,967.16
2017-01-21T01:44:15.851Z,967.16
2017-01-21T01:45:15.832Z,967.11
2017-01-21T01:46:15.810Z,967.14
2017-01-21T01:47:15.826Z,967.1
2017-01-21T01:48:15.769Z,967.13
2017-01-21T01:49:15.748Z,967.09
2017-01-21T01:50:15.855Z,967.1
2017-01-21T01:51:15.707Z,967.13
2017-01-21T01:52:15.688Z,967.13
2017-01-21T01:53:15.766Z,967.16
2017-01-21T01:54:15.645Z,967.09
2017-01-21T01:55:15.626Z,967.12
2017-01-21T01:56:15.736Z,967.09
2017-01-21T01:57:15.586Z,967.11
2017-01-21T01:58:15.564Z,967.08
2017-01-21T01:59:15.626Z,967.11
2017-01-21T02:00:15.524Z,967.07
2017-01-21T02:01:15.504Z,967.1
2017-01-21T02:02:15.616Z,967.04
2017-01-21T02:03:15.463Z,967.06
2017-01-21T02:04:15.442Z,967.08
2017-01-21T02:05:15.594Z,967.04
2017-01-21T02:06:15.402Z,967.03
2017-01-21T02:07:15.382Z,967.05
2017-01-21T02:08:15.395Z,967.07
2017-01-21T02:09:15.340Z,967.1
2017-01-21T02:10:15.320Z,967.04
2017-01-21T02:11:15.299Z,967.04
2017-01-21T02:12:15.280Z,967.07
2017-01-21T02:13:15.260Z,967.05
2017-01-21T02:14:15.240Z,967.02
2017-01-21T02:15:15.218Z,967.02
2017-01-21T02:16:15.199Z,967.02
2017-01-21T02:17:15.178Z,966.99
2017-01-21T02:18:15.159Z,966.99
2017-01-21T02:19:15.138Z,967
2017-01-21T02:20:15.117Z,967.02
2017-01-21T02:21:15.096Z,967.03
2017-01-21T02:22:15.077Z,967
2017-01-21T02:23:15.092Z,967.06
2017-01-21T02:24:15.036Z,966.98
2017-01-21T02:25:15.015Z,966.96
2017-01-21T02:26:14.995Z,966.96
2017-01-21T02:27:14.975Z,966.94
2017-01-21T02:28:14.955Z,966.9
2017-01-21T02:29:14.935Z,966.94
2017-01-21T02:30:14.914Z,966.91
2017-01-21T02:31:14.895Z,966.92
2017-01-21T02:32:14.872Z,966.91
2017-01-21T02:33:14.853Z,966.92
2017-01-21T02:34:14.832Z,966.95
2017-01-21T02:35:14.812Z,966.95
2017-01-21T02:36:14.792Z,966.93
2017-01-21T02:37:14.771Z,966.94
2017-01-21T02:38:14.750Z,966.93
2017-01-21T02:39:14.730Z,966.92
2017-01-21T02:40:14.710Z,966.88
2017-01-21T02:41:14.689Z,966.87
2017-01-21T02:42:14.704Z,966.83
2017-01-21T02:43:14.647Z,966.84
2017-01-21T02:44:14.628Z,966.84
2017-01-21T02:45:14.607Z,966.86
2017-01-21T02:46:14.590Z,966.9
2017-01-21T02:47:14.566Z,966.89
2017-01-21T02:48:14.546Z,966.86
2017-01-21T02:49:14.525Z,966.86
2017-01-21T02:50:14.505Z,966.87
2017-01-21T02:51:14.485Z,966.83
2017-01-21T02:52:14.495Z,966.82
2017-01-21T02:53:14.443Z,966.84
2017-01-21T02:54:14.423Z,966.86
2017-01-21T02:55:14.403Z,966.9
2017-01-21T02:56:14.382Z,966.86
2017-01-21T02:57:14.362Z,966.86
2017-01-21T02:58:14.342Z,966.89
2017-01-21T02:59:14.319Z,966.86
2017-01-21T03:00:14.299Z,966.84
2017-01-21T03:01:14.279Z,966.86
2017-01-21T03:02:14.260Z,966.86
2017-01-21T03:03:14.239Z,966.92
2017-01-21T03:04:14.218Z,966.89
2017-01-21T03:05:14.198Z,966.93
2017-01-21T03:06:14.179Z,966.89
2017-01-21T03:07:14.190Z,966.91
2017-01-21T03:08:14.138Z,966.93
2017-01-21T03:09:14.118Z,966.87
2017-01-21T03:10:14.181Z,966.86
2017-01-21T03:11:14.077Z,966.87
2017-01-21T03:12:14.057Z,966.88
2017-01-21T03:13:14.067Z,966.85
2017-01-21T03:14:14.014Z,966.86
2017-01-21T03:15:13.995Z,966.85
2017-01-21T03:16:13.974Z,966.87
2017-01-21T03:17:13.983Z,966.8
2017-01-21T03:18:13.932Z,966.82
2017-01-21T03:19:13.913Z,966.85
2017-01-21T03:20:13.974Z,966.77
2017-01-21T03:21:13.870Z,966.76
2017-01-21T03:22:13.850Z,966.78
2017-01-21T03:23:13.868Z,966.75
2017-01-21T03:24:13.811Z,966.73
2017-01-21T03:25:13.790Z,966.76
2017-01-21T03:26:13.801Z,966.75
2017-01-21T03:27:13.748Z,966.8
2017-01-21T03:28:13.727Z,966.77
2017-01-21T03:29:13.706Z,966.79
2017-01-21T03:30:13.686Z,966.79
2017-01-21T03:31:13.701Z,966.75
2017-01-21T03:32:13.644Z,966.75
2017-01-21T03:33:13.624Z,966.75
2017-01-21T03:34:13.637Z,966.75
2017-01-21T03:35:13.585Z,966.73
2017-01-21T03:36:13.562Z,966.7
2017-01-21T03:37:13.577Z,966.71
2017-01-21T03:38:13.519Z,966.69
2017-01-21T03:39:13.499Z,966.69
2017-01-21T03:40:13.479Z,966.69
2017-01-21T03:41:13.458Z,966.59
2017-01-21T03:42:13.438Z,966.63
2017-01-21T03:43:13.418Z,966.62
2017-01-21T03:44:13.396Z,966.65
2017-01-21T03:45:13.376Z,966.65
2017-01-21T03:46:13.355Z,966.68
2017-01-21T03:47:13.334Z,966.66
2017-01-21T03:48:13.316Z,966.65
2017-01-21T03:49:13.293Z,966.65
2017-01-21T03:50:13.271Z,966.69
2017-01-21T03:51:13.250Z,966.62
2017-01-21T03:52:13.230Z,966.59
2017-01-21T03:53:13.210Z,966.63
2017-01-21T03:54:13.188Z,966.61
2017-01-21T03:55:13.168Z,966.6
2017-01-21T03:56:13.149Z,966.63
2017-01-21T03:57:13.128Z,966.65
2017-01-21T03:58:13.105Z,966.59
2017-01-21T03:59:13.085Z,966.61
2017-01-21T04:00:13.064Z,966.6
2017-01-21T04:01:13.043Z,966.61
2017-01-21T04:02:13.022Z,966.59
2017-01-21T04:03:13.002Z,966.64
2017-01-21T04:04:12.981Z,966.6
2017-01-21T04:05:12.960Z,966.64
2017-01-21T04:06:12.939Z,966.63
2017-01-21T04:07:12.920Z,966.63
2017-01-21T04:08:12.899Z,966.65
2017-01-21T04:09:12.877Z,966.65
2017-01-21T04:10:12.856Z,966.62
2017-01-21T04:11:12.835Z,966.62
2017-01-21T04:12:12.815Z,966.61
2017-01-21T04:13:12.794Z,966.56
2017-01-21T04:14:12.773Z,966.55
2017-01-21T04:15:12.753Z,966.55
2017-01-21T04:16:12.731Z,966.54
2017-01-21T04:17:12.710Z,966.52
2017-01-21T04:18:12.691Z,966.55
2017-01-21T04:19:12.673Z,966.51
2017-01-21T04:20:12.648Z,966.54
2017-01-21T04:21:12.627Z,966.54
2017-01-21T04:22:12.606Z,966.55
2017-01-21T04:23:12.585Z,966.52
2017-01-21T04:24:12.564Z,966.53
2017-01-21T04:25:12.544Z,966.52
2017-01-21T04:26:12.523Z,966.52
2017-01-21T04:27:12.505Z,966.49
2017-01-21T04:28:12.481Z,966.5
2017-01-21T04:29:12.461Z,966.48
2017-01-21T04:30:12.443Z,966.48
2017-01-21T04:31:12.417Z,966.42
2017-01-21T04:32:12.398Z,966.45
2017-01-21T04:33:12.377Z,966.47
2017-01-21T04:34:12.355Z,966.46
2017-01-21T04:35:12.334Z,966.46
2017-01-21T04:36:12.314Z,966.47
2017-01-21T04:37:12.292Z,966.46
2017-01-21T04:38:12.271Z,966.48
2017-01-21T04:39:12.250Z,966.48
2017-01-21T04:40:12.230Z,966.46
2017-01-21T04:41:12.209Z,966.44
2017-01-21T04:42:12.188Z,966.44
2017-01-21T04:43:12.167Z,966.4
2017-01-21T04:44:12.146Z,966.44
2017-01-21T04:45:12.125Z,966.37
2017-01-21T04:46:12.104Z,966.33
2017-01-21T04:47:12.083Z,966.38
2017-01-21T04:48:12.062Z,966.31
2017-01-21T04:49:12.040Z,966.35
2017-01-21T04:50:12.020Z,966.31
2017-01-21T04:51:11.999Z,966.31
2017-01-21T04:52:11.978Z,966.32
2017-01-21T04:53:11.958Z,966.3
2017-01-21T04:54:11.935Z,966.28
2017-01-21T04:55:11.915Z,966.3
2017-01-21T04:56:11.894Z,966.33
2017-01-21T04:57:11.872Z,966.32
2017-01-21T04:58:11.852Z,966.27
2017-01-21T04:59:11.830Z,966.31
2017-01-21T05:00:11.860Z,966.26
2017-01-21T05:01:11.788Z,966.23
2017-01-21T05:02:11.767Z,966.23
2017-01-21T05:03:11.745Z,966.22
2017-01-21T05:04:11.724Z,966.21
2017-01-21T05:05:11.703Z,966.29
2017-01-21T05:06:11.682Z,966.29
2017-01-21T05:07:11.660Z,966.28
2017-01-21T05:08:11.640Z,966.27
2017-01-21T05:09:11.619Z,966.32
2017-01-21T05:10:11.597Z,966.39
2017-01-21T05:11:11.575Z,966.33
2017-01-21T05:12:11.554Z,966.38
2017-01-21T05:13:11.533Z,966.34
2017-01-21T05:14:11.512Z,966.36
2017-01-21T05:15:11.491Z,966.35
2017-01-21T05:16:11.471Z,966.41
2017-01-21T05:17:11.449Z,966.34
2017-01-21T05:18:11.427Z,966.35
2017-01-21T05:19:11.406Z,966.33
2017-01-21T05:20:11.385Z,966.33
2017-01-21T05:21:11.365Z,966.34
2017-01-21T05:22:11.343Z,966.33
2017-01-21T05:23:11.321Z,966.39
2017-01-21T05:24:11.300Z,966.4
2017-01-21T05:25:11.278Z,966.34
2017-01-21T05:26:11.257Z,966.35
2017-01-21T05:27:11.237Z,966.35
2017-01-21T05:28:11.215Z,966.38
2017-01-21T05:29:11.196Z,966.38
2017-01-21T05:30:11.173Z,966.39
2017-01-21T05:31:11.152Z,966.38
2017-01-21T05:32:11.130Z,966.38
2017-01-21T05:33:11.108Z,966.35
2017-01-21T05:34:11.086Z,966.33
2017-01-21T05:35:11.066Z,966.29
2017-01-21T05:36:11.043Z,966.25
2017-01-21T05:37:11.024Z,966.26
2017-01-21T05:38:11.002Z,966.26
2017-01-21T05:39:10.981Z,966.21
2017-01-21T05:40:10.959Z,966.2
2017-01-21T05:41:10.938Z,966.19
2017-01-21T05:42:10.917Z,966.27
2017-01-21T05:43:10.898Z,966.23
2017-01-21T05:44:10.875Z,966.2
2017-01-21T05:45:10.854Z,966.22
2017-01-21T05:46:10.832Z,966.2
2017-01-21T05:47:10.811Z,966.24
2017-01-21T05:48:10.789Z,966.26
2017-01-21T05:49:10.769Z,966.26
2017-01-21T05:50:10.748Z,966.33
2017-01-21T05:51:10.726Z,966.27
2017-01-21T05:52:10.704Z,966.38
2017-01-21T05:53:10.683Z,966.33
2017-01-21T05:54:10.662Z,966.33
2017-01-21T05:55:10.640Z,966.36
2017-01-21T05:56:10.618Z,966.4
2017-01-21T05:57:10.597Z,966.41
2017-01-21T05:58:10.576Z,966.38
2017-01-21T05:59:10.555Z,966.35
2017-01-21T06:00:10.533Z,966.35
2017-01-21T06:01:10.512Z,966.37
2017-01-21T06:02:10.491Z,966.34
2017-01-21T06:03:10.469Z,966.34
2017-01-21T06:04:10.448Z,966.33
2017-01-21T06:05:10.427Z,966.35
2017-01-21T06:06:10.404Z,966.3
2017-01-21T06:07:10.385Z,966.34
2017-01-21T06:08:10.364Z,966.33
2017-01-21T06:09:10.341Z,966.42
2017-01-21T06:10:10.321Z,966.39
2017-01-21T06:11:10.298Z,966.38
2017-01-21T06:12:10.277Z,966.39
2017-01-21T06:13:10.254Z,966.44
2017-01-21T06:14:10.233Z,966.43
2017-01-21T06:15:10.212Z,966.43
2017-01-21T06:16:10.191Z,966.41
2017-01-21T06:17:10.170Z,966.41
2017-01-21T06:18:10.148Z,966.39
2017-01-21T06:19:10.127Z,966.43
2017-01-21T06:20:10.105Z,966.38
2017-01-21T06:21:10.085Z,966.4
2017-01-21T06:22:10.063Z,966.43
2017-01-21T06:23:10.043Z,966.38
2017-01-21T06:24:10.020Z,966.37
2017-01-21T06:25:09.999Z,966.34
2017-01-21T06:26:09.978Z,966.33
2017-01-21T06:27:09.955Z,966.32
2017-01-21T06:28:09.934Z,966.27
2017-01-21T06:29:09.914Z,966.23
2017-01-21T06:30:09.891Z,966.23
2017-01-21T06:31:09.868Z,966.22
2017-01-21T06:32:09.849Z,966.25
2017-01-21T06:33:09.828Z,966.22
2017-01-21T06:34:09.805Z,966.25
2017-01-21T06:35:09.783Z,966.19
2017-01-21T06:36:09.762Z,966.2
2017-01-21T06:37:09.741Z,966.2
2017-01-21T06:38:09.719Z,966.23
2017-01-21T06:39:09.698Z,966.25
2017-01-21T06:40:09.678Z,966.29
2017-01-21T06:41:09.656Z,966.23
2017-01-21T06:42:09.633Z,966.21
2017-01-21T06:43:09.612Z,966.2
2017-01-21T06:44:09.592Z,966.24
2017-01-21T06:45:09.571Z,966.25
2017-01-21T06:46:09.548Z,966.32
2017-01-21T06:47:09.527Z,966.34
2017-01-21T06:48:09.506Z,966.37
2017-01-21T06:49:09.484Z,966.27
2017-01-21T06:50:09.463Z,966.26
2017-01-21T06:51:09.441Z,966.23
2017-01-21T06:52:09.420Z,966.19
2017-01-21T06:53:09.398Z,966.22
2017-01-21T06:54:09.377Z,966.19
2017-01-21T06:55:09.356Z,966.2
2017-01-21T06:56:09.335Z,966.16
2017-01-21T06:57:09.314Z,966.17
2017-01-21T06:58:09.291Z,966.14
2017-01-21T06:59:09.270Z,966.19
2017-01-21T07:00:09.248Z,966.21
2017-01-21T07:01:09.227Z,966.21
2017-01-21T07:02:09.207Z,966.27
2017-01-21T07:03:09.186Z,966.28
2017-01-21T07:04:09.164Z,966.27
2017-01-21T07:05:09.142Z,966.32
2017-01-21T07:06:09.121Z,966.32
2017-01-21T07:07:09.100Z,966.33
2017-01-21T07:08:09.077Z,966.36
2017-01-21T07:09:09.057Z,966.43
2017-01-21T07:10:09.036Z,966.42
2017-01-21T07:11:09.015Z,966.44
2017-01-21T07:12:08.993Z,966.44
2017-01-21T07:13:08.972Z,966.49
2017-01-21T07:14:08.950Z,966.5
2017-01-21T07:15:08.928Z,966.58
2017-01-21T07:16:08.908Z,966.55
2017-01-21T07:17:08.887Z,966.62
2017-01-21T07:18:08.866Z,966.61
2017-01-21T07:19:08.845Z,966.6
2017-01-21T07:20:08.823Z,966.56
2017-01-21T07:21:08.801Z,966.56
2017-01-21T07:22:08.779Z,966.55
2017-01-21T07:23:08.757Z,966.56
2017-01-21T07:24:08.739Z,966.55
2017-01-21T07:25:08.716Z,966.62
2017-01-21T07:26:08.695Z,966.63
2017-01-21T07:27:08.673Z,966.6
2017-01-21T07:28:08.652Z,966.64
2017-01-21T07:29:08.631Z,966.67
2017-01-21T07:30:08.608Z,966.66
2017-01-21T07:31:08.587Z,966.64
2017-01-21T07:32:08.567Z,966.66
2017-01-21T07:33:08.544Z,966.71
2017-01-21T07:34:08.524Z,966.75
2017-01-21T07:35:08.503Z,966.78
2017-01-21T07:36:08.481Z,966.76
2017-01-21T07:37:08.459Z,966.77
2017-01-21T07:38:08.438Z,966.79
2017-01-21T07:39:08.418Z,966.75
2017-01-21T07:40:08.396Z,966.78
2017-01-21T07:41:08.373Z,966.72
2017-01-21T07:42:08.353Z,966.74
2017-01-21T07:43:08.332Z,966.67
2017-01-21T07:44:08.310Z,966.65
2017-01-21T07:45:08.288Z,966.68
2017-01-21T07:46:08.268Z,966.7
2017-01-21T07:47:08.248Z,966.69
2017-01-21T07:48:08.224Z,966.71
2017-01-21T07:49:08.203Z,966.64
2017-01-21T07:50:08.183Z,966.66
2017-01-21T07:51:08.161Z,966.71
2017-01-21T07:52:08.140Z,966.71
2017-01-21T07:53:08.119Z,966.66
2017-01-21T07:54:08.098Z,966.66
2017-01-21T07:55:08.076Z,966.66
2017-01-21T07:56:08.056Z,966.67
2017-01-21T07:57:08.034Z,966.73
2017-01-21T07:58:08.014Z,966.74
2017-01-21T07:59:07.992Z,966.75
2017-01-21T08:00:07.970Z,966.71
2017-01-21T08:01:07.949Z,966.74
2017-01-21T08:02:07.927Z,966.74
2017-01-21T08:03:07.907Z,966.72
2017-01-21T08:04:07.886Z,966.73
2017-01-21T08:05:07.865Z,966.77
2017-01-21T08:06:07.842Z,966.76
2017-01-21T08:07:07.822Z,966.82
2017-01-21T08:08:07.799Z,966.78
2017-01-21T08:09:07.780Z,966.76
2017-01-21T08:10:07.759Z,966.77
2017-01-21T08:11:07.880Z,966.76
2017-01-21T08:12:07.715Z,966.8
2017-01-21T08:13:07.693Z,966.81
2017-01-21T08:14:07.672Z,966.82
2017-01-21T08:15:07.651Z,966.8
2017-01-21T08:16:07.630Z,966.81
2017-01-21T08:17:07.608Z,966.81
2017-01-21T08:18:07.588Z,966.9
2017-01-21T08:19:07.567Z,966.87
2017-01-21T08:20:07.545Z,966.86
2017-01-21T08:21:07.524Z,966.87
2017-01-21T08:22:07.504Z,966.87
2017-01-21T08:23:07.483Z,966.82
2017-01-21T08:24:07.462Z,966.86
2017-01-21T08:25:07.440Z,966.88
2017-01-21T08:26:07.419Z,966.88
2017-01-21T08:27:07.398Z,966.91
2017-01-21T08:28:07.376Z,966.89
2017-01-21T08:29:07.356Z,966.86
2017-01-21T08:30:07.335Z,966.86
2017-01-21T08:31:07.315Z,966.86
2017-01-21T08:32:07.293Z,966.81
2017-01-21T08:33:07.273Z,966.83
2017-01-21T08:34:07.253Z,966.82
2017-01-21T08:35:07.231Z,966.85
2017-01-21T08:36:07.211Z,966.84
2017-01-21T08:37:07.189Z,966.86
2017-01-21T08:38:07.183Z,966.86
2017-01-21T08:39:07.174Z,966.87
2017-01-21T08:40:07.126Z,966.83
2017-01-21T08:41:07.106Z,966.87
2017-01-21T08:42:07.086Z,966.81
2017-01-21T08:43:07.065Z,966.85
2017-01-21T08:44:07.045Z,966.86
2017-01-21T08:45:07.024Z,966.84
2017-01-21T08:46:07.002Z,966.88
2017-01-21T08:47:06.982Z,966.88
2017-01-21T08:48:06.962Z,966.9
2017-01-21T08:49:06.941Z,966.89
2017-01-21T08:50:06.920Z,966.87
2017-01-21T08:51:06.901Z,966.87
2017-01-21T08:52:06.879Z,966.85
2017-01-21T08:53:06.861Z,966.87
2017-01-21T08:54:06.840Z,966.89
2017-01-21T08:55:06.818Z,966.9
2017-01-21T08:56:06.798Z,966.87
2017-01-21T08:57:06.777Z,966.83
2017-01-21T08:58:06.757Z,966.82
2017-01-21T08:59:06.736Z,966.82
2017-01-21T09:00:06.717Z,966.79
2017-01-21T09:01:06.696Z,966.77
2017-01-21T09:02:06.676Z,966.76
2017-01-21T09:03:06.656Z,966.85
2017-01-21T09:04:06.636Z,966.82
2017-01-21T09:05:06.616Z,966.82
2017-01-21T09:06:06.596Z,966.8
2017-01-21T09:07:06.576Z,966.78
2017-01-21T09:08:06.554Z,966.83
2017-01-21T09:09:06.537Z,966.78
2017-01-21T09:10:06.517Z,966.79
2017-01-21T09:11:06.499Z,966.84
2017-01-21T09:12:06.476Z,966.87
2017-01-21T09:13:06.457Z,966.91
2017-01-21T09:14:06.437Z,966.88
2017-01-21T09:15:06.417Z,966.87
2017-01-21T09:16:06.396Z,966.87
2017-01-21T09:17:06.377Z,966.88
2017-01-21T09:18:06.357Z,966.89
2017-01-21T09:19:06.337Z,966.86
2017-01-21T09:20:06.316Z,966.85
2017-01-21T09:21:06.298Z,966.87
2017-01-21T09:22:06.279Z,966.87
2017-01-21T09:23:06.260Z,966.87
2017-01-21T09:24:06.239Z,966.89
2017-01-21T09:25:06.219Z,966.85
2017-01-21T09:26:06.200Z,966.85
2017-01-21T09:27:06.182Z,966.84
2017-01-21T09:28:06.163Z,966.85
2017-01-21T09:29:06.142Z,966.82
2017-01-21T09:30:06.122Z,966.82
2017-01-21T09:31:06.103Z,966.79
2017-01-21T09:32:06.083Z,966.8
2017-01-21T09:33:06.063Z,966.79
2017-01-21T09:34:06.043Z,966.81
2017-01-21T09:35:06.025Z,966.86
2017-01-21T09:36:06.005Z,966.85
2017-01-21T09:37:05.984Z,966.85
2017-01-21T09:38:05.966Z,966.85
2017-01-21T09:39:05.946Z,966.87
2017-01-21T09:40:05.927Z,966.86
2017-01-21T09:41:05.907Z,966.84
2017-01-21T09:42:05.887Z,966.82
2017-01-21T09:43:05.869Z,966.84
2017-01-21T09:44:05.850Z,966.82
2017-01-21T09:45:05.830Z,966.87
2017-01-21T09:46:05.811Z,966.86
2017-01-21T09:47:05.791Z,966.91
2017-01-21T09:48:05.773Z,966.89
2017-01-21T09:49:05.754Z,966.83
2017-01-21T09:50:05.733Z,966.78
2017-01-21T09:51:05.715Z,966.85
2017-01-21T09:52:05.694Z,966.8
2017-01-21T09:53:05.675Z,966.78
2017-01-21T09:54:05.656Z,966.73
2017-01-21T09:55:05.638Z,966.74
2017-01-21T09:56:05.618Z,966.75
2017-01-21T09:57:05.599Z,966.73
2017-01-21T09:58:05.580Z,966.72
2017-01-21T09:59:05.560Z,966.69
2017-01-21T10:00:05.541Z,966.71
2017-01-21T10:01:05.526Z,966.74
2017-01-21T10:02:05.503Z,966.73
2017-01-21T10:03:05.483Z,966.73
2017-01-21T10:04:05.465Z,966.73
2017-01-21T10:05:05.447Z,966.74
2017-01-21T10:06:05.428Z,966.71
2017-01-21T10:07:05.411Z,966.69
2017-01-21T10:08:05.389Z,966.7
2017-01-21T10:09:05.370Z,966.71
2017-01-21T10:10:05.351Z,966.72
2017-01-21T10:11:05.331Z,966.71
2017-01-21T10:12:05.313Z,966.69
2017-01-21T10:13:05.294Z,966.67
2017-01-21T10:14:05.275Z,966.65
2017-01-21T10:15:05.256Z,966.68
2017-01-21T10:16:05.237Z,966.62
2017-01-21T10:17:05.219Z,966.63
2017-01-21T10:18:05.200Z,966.63
2017-01-21T10:19:05.180Z,966.65
2017-01-21T10:20:05.162Z,966.61
2017-01-21T10:21:05.143Z,966.66
2017-01-21T10:22:05.124Z,966.56
2017-01-21T10:23:05.106Z,966.58
2017-01-21T10:24:05.087Z,966.53
2017-01-21T10:25:05.069Z,966.63
2017-01-21T10:26:05.050Z,966.6
2017-01-21T10:27:05.031Z,966.62
2017-01-21T10:28:05.013Z,966.62
2017-01-21T10:29:04.995Z,966.6
2017-01-21T10:30:04.976Z,966.6
2017-01-21T10:31:04.959Z,966.54
2017-01-21T10:32:04.938Z,966.56
2017-01-21T10:33:04.920Z,966.59
2017-01-21T10:34:04.902Z,966.59
2017-01-21T10:35:04.884Z,966.55
2017-01-21T10:36:04.865Z,966.52
2017-01-21T10:37:04.847Z,966.51
2017-01-21T10:38:04.829Z,966.5
2017-01-21T10:39:04.811Z,966.51
2017-01-21T10:40:04.791Z,966.51
2017-01-21T10:41:04.773Z,966.55
2017-01-21T10:42:04.754Z,966.48
2017-01-21T10:43:04.736Z,966.46
2017-01-21T10:44:04.719Z,966.48
2017-01-21T10:45:04.701Z,966.47
2017-01-21T10:46:04.683Z,966.45
2017-01-21T10:47:04.664Z,966.46
2017-01-21T10:48:04.646Z,966.43
2017-01-21T10:49:04.629Z,966.42
2017-01-21T10:50:04.610Z,966.44
2017-01-21T10:51:04.592Z,966.42
2017-01-21T10:52:04.574Z,966.41
2017-01-21T10:53:04.557Z,966.4
2017-01-21T10:54:04.538Z,966.39
2017-01-21T10:55:04.522Z,966.38
2017-01-21T10:56:04.502Z,966.36
2017-01-21T10:57:04.486Z,966.36
2017-01-21T10:58:04.467Z,966.38
2017-01-21T10:59:04.451Z,966.36
2017-01-21T11:00:04.433Z,966.3
2017-01-21T11:01:04.415Z,966.28
2017-01-21T11:02:04.399Z,966.23
2017-01-21T11:03:04.381Z,966.22
2017-01-21T11:04:04.364Z,966.23
2017-01-21T11:05:04.347Z,966.25
2017-01-21T11:06:04.329Z,966.24
2017-01-21T11:07:04.314Z,966.21
2017-01-21T11:08:04.294Z,966.21
2017-01-21T11:09:04.276Z,966.23
2017-01-21T11:10:04.260Z,966.25
2017-01-21T11:11:04.243Z,966.24
2017-01-21T11:12:04.224Z,966.21
2017-01-21T11:13:04.208Z,966.22
2017-01-21T11:14:04.190Z,966.18
2017-01-21T11:15:04.172Z,966.13
2017-01-21T11:16:04.156Z,966.17
2017-01-21T11:17:04.139Z,966.11
2017-01-21T11:18:04.122Z,966.13
2017-01-21T11:19:04.106Z,966.14
2017-01-21T11:20:04.087Z,966.11
2017-01-21T11:21:04.071Z,966.11
2017-01-21T11:22:04.055Z,966.08
2017-01-21T11:23:04.036Z,966.08
2017-01-21T11:24:04.018Z,966.06
2017-01-21T11:25:04.002Z,966.05
2017-01-21T11:26:03.986Z,966.05
2017-01-21T11:27:03.968Z,966.04
2017-01-21T11:28:03.951Z,966.04
2017-01-21T11:29:03.935Z,965.99
2017-01-21T11:30:03.918Z,966.02
2017-01-21T11:31:03.900Z,965.96
2017-01-21T11:32:03.884Z,965.97
2017-01-21T11:33:03.867Z,965.98
2017-01-21T11:34:03.850Z,965.96
2017-01-21T11:35:03.834Z,965.95
2017-01-21T11:36:03.817Z,965.95
2017-01-21T11:37:03.801Z,965.97
2017-01-21T11:38:03.784Z,965.98
2017-01-21T11:39:03.767Z,965.95
2017-01-21T11:40:03.751Z,965.96
2017-01-21T11:41:03.735Z,965.95
2017-01-21T11:42:03.717Z,965.98
2017-01-21T11:43:03.701Z,965.98
2017-01-21T11:44:03.685Z,965.97
2017-01-21T11:45:03.669Z,965.92
2017-01-21T11:46:03.651Z,965.9
2017-01-21T11:47:03.636Z,965.88
2017-01-21T11:48:03.620Z,965.9
2017-01-21T11:49:03.603Z,965.91
2017-01-21T11:50:03.588Z,965.93
2017-01-21T11:51:03.571Z,965.92
2017-01-21T11:52:03.555Z,965.92
2017-01-21T11:53:03.538Z,965.9
2017-01-21T11:54:03.522Z,965.87
2017-01-21T11:55:03.507Z,965.88
2017-01-21T11:56:03.489Z,965.91
2017-01-21T11:57:03.474Z,965.86
2017-01-21T11:58:03.458Z,965.88
2017-01-21T11:59:03.442Z,965.89
2017-01-21T12:00:03.428Z,965.86
2017-01-21T12:01:03.409Z,965.91
2017-01-21T12:02:03.392Z,965.94
2017-01-21T12:03:03.377Z,965.89
2017-01-21T12:04:03.360Z,965.87
2017-01-21T12:05:03.344Z,965.83
2017-01-21T12:06:03.330Z,965.86
2017-01-21T12:07:03.312Z,965.8
2017-01-21T12:08:03.296Z,965.81
2017-01-21T12:09:03.281Z,965.78
2017-01-21T12:10:03.265Z,965.75
2017-01-21T12:11:03.248Z,965.77
2017-01-21T12:12:03.233Z,965.79
2017-01-21T12:13:03.217Z,965.8
2017-01-21T12:14:03.201Z,965.78
2017-01-21T12:15:03.186Z,965.81
2017-01-21T12:16:03.169Z,965.81
2017-01-21T12:17:03.155Z,965.78
2017-01-21T12:18:03.138Z,965.76
2017-01-21T12:19:03.121Z,965.76
2017-01-21T12:20:03.107Z,965.75
2017-01-21T12:21:03.090Z,965.7
2017-01-21T12:22:03.074Z,965.68
2017-01-21T12:23:03.058Z,965.68
2017-01-21T12:24:03.043Z,965.66
2017-01-21T12:25:03.028Z,965.66
2017-01-21T12:26:03.011Z,965.66
2017-01-21T12:27:02.997Z,965.64
2017-01-21T12:28:02.980Z,965.68
2017-01-21T12:29:02.964Z,965.66
2017-01-21T12:30:02.948Z,965.66